Time;durP1;ratioP1;P1;durP2;ratioP2;P2;SDS_P1;SDS_P2;PMS_P1;PMS_P2;Temp;Humidity;BMP_temperature;BMP_pressure;BME280_temperature;BME280_humidity;BME280_pressure;Samples;Min_cycle;Max_cycle;Signal;HPM_P1;HPM_P2
2023/09/02 00:00:34;;;;;;;4.07;3.35;;;13.40;99.90;;;;;;5104967;27;20142;-57
2023/09/02 00:03:00;;;;;;;4.78;4.00;;;13.40;99.90;;;;;;5104436;27;20058;-57
2023/09/02 00:05:26;;;;;;;7.72;4.15;;;13.40;99.90;;;;;;5129447;27;20055;-57
2023/09/02 00:07:51;;;;;;;7.13;3.75;;;13.30;99.90;;;;;;5115733;27;20054;-57
2023/09/02 00:10:17;;;;;;;4.85;3.17;;;13.30;99.90;;;;;;5104461;27;20577;-57
2023/09/02 00:12:43;;;;;;;5.95;3.80;;;13.30;99.90;;;;;;5127235;27;20062;-58
2023/09/02 00:15:09;;;;;;;4.00;3.45;;;13.30;99.90;;;;;;5111430;27;20112;-59
2023/09/02 00:17:35;;;;;;;4.78;3.78;;;13.30;99.90;;;;;;5131056;27;20043;-56
2023/09/02 00:20:05;;;;;;;4.72;3.80;;;13.30;99.90;;;;;;5089426;28;20051;-56
2023/09/02 00:22:32;;;;;;;6.25;3.17;;;13.20;99.90;;;;;;5132189;27;20141;-57
2023/09/02 00:24:59;;;;;;;6.22;3.72;;;13.20;99.90;;;;;;5139282;27;20058;-57
2023/09/02 00:27:25;;;;;;;4.72;3.45;;;13.10;99.90;;;;;;5136689;27;20047;-59
2023/09/02 00:29:50;;;;;;;5.28;4.28;;;13.10;99.90;;;;;;5108776;27;20103;-58
2023/09/02 00:32:16;;;;;;;4.30;3.30;;;13.10;99.90;;;;;;5135532;27;20050;-57
2023/09/02 00:34:42;;;;;;;4.50;4.05;;;13.00;99.90;;;;;;5114219;27;20059;-57
2023/09/02 00:37:08;;;;;;;3.47;3.13;;;13.00;99.90;;;;;;5135631;27;20077;-57
2023/09/02 00:39:34;;;;;;;4.30;3.30;;;13.00;99.90;;;;;;5136065;27;20051;-56
2023/09/02 00:42:01;;;;;;;3.72;3.22;;;13.00;99.90;;;;;;5087003;27;20569;-59
2023/09/02 00:44:26;;;;;;;3.55;3.05;;;13.00;99.90;;;;;;5126017;27;20062;-59
2023/09/02 00:46:53;;;;;;;3.80;3.45;;;12.90;99.90;;;;;;5121307;27;20048;-60
2023/09/02 00:49:23;;;;;;;4.13;3.72;;;14.10;99.90;;;;;;5101598;28;20048;-57
2023/09/02 00:51:48;;;;;;;3.92;3.50;;;12.90;99.90;;;;;;5118847;27;20449;-57
2023/09/02 00:54:14;;;;;;;3.95;3.38;;;12.90;99.90;;;;;;5106972;27;20052;-57
2023/09/02 00:56:40;;;;;;;6.90;4.50;;;12.80;99.90;;;;;;5105555;27;20064;-56
2023/09/02 00:59:06;;;;;;;3.85;3.45;;;12.80;99.90;;;;;;5120230;27;20048;-56
2023/09/02 01:01:34;;;;;;;5.00;3.40;;;12.80;99.90;;;;;;5119078;27;20766;-56
2023/09/02 01:04:03;;;;;;;4.20;3.15;;;12.70;99.90;;;;;;5102181;28;20051;-57
2023/09/02 01:06:29;;;;;;;4.80;3.20;;;12.80;99.90;;;;;;5112976;27;20048;-56
2023/09/02 01:08:55;;;;;;;5.32;4.15;;;12.70;99.90;;;;;;5095398;28;20108;-57
2023/09/02 01:11:24;;;;;;;5.75;3.17;;;12.80;99.90;;;;;;5140656;27;20403;-57
2023/09/02 01:13:50;;;;;;;4.57;3.67;;;12.70;99.90;;;;;;5111677;27;20073;-57
2023/09/02 01:16:16;;;;;;;6.75;4.32;;;12.70;99.90;;;;;;5109665;27;20564;-57
2023/09/02 01:18:41;;;;;;;6.00;4.35;;;12.70;99.90;;;;;;5130514;27;20405;-57
2023/09/02 01:21:23;;;;;;;5.28;4.63;;;12.70;99.90;;;;;;5110866;27;20054;-56
2023/09/02 01:24:16;;;;;;;4.57;3.78;;;12.70;99.90;;;;;;5143531;27;20046;-56
2023/09/02 01:27:16;;;;;;;4.37;3.93;;;12.60;99.90;;;;;;5123808;27;20070;-56
2023/09/02 01:30:07;;;;;;;5.57;3.72;;;12.60;99.90;;;;;;5130434;27;20303;-56
2023/09/02 01:32:37;;;;;;;3.90;3.00;;;12.60;99.90;;;;;;5128980;27;20055;-56
2023/09/02 01:35:04;;;;;;;5.97;4.53;;;12.60;99.90;;;;;;5119630;27;20055;-56
2023/09/02 01:37:34;;;;;;;5.00;3.97;;;12.60;99.90;;;;;;5081467;28;20417;-56
2023/09/02 01:40:04;;;;;;;5.05;4.10;;;12.60;99.90;;;;;;5143757;27;20074;-56
2023/09/02 01:42:30;;;;;;;8.25;4.57;;;12.60;99.90;;;;;;5112880;27;20398;-56
2023/09/02 01:44:57;;;;;;;6.03;3.90;;;12.60;99.90;;;;;;5109719;27;20050;-56
2023/09/02 01:47:23;;;;;;;5.78;4.18;;;12.60;99.90;;;;;;5112343;27;20055;-53
2023/09/02 01:49:50;;;;;;;9.75;4.45;;;12.50;99.90;;;;;;5133237;27;20110;-56
2023/09/02 01:52:17;;;;;;;6.50;4.63;;;12.50;99.90;;;;;;5130479;27;20141;-57
2023/09/02 01:54:43;;;;;;;7.55;4.80;;;12.50;99.90;;;;;;5105612;27;20051;-57
2023/09/02 01:57:09;;;;;;;4.82;3.95;;;12.60;99.90;;;;;;5116320;27;20365;-58
2023/09/02 01:59:35;;;;;;;6.97;4.53;;;12.50;99.90;;;;;;5110252;27;20505;-58
2023/09/02 02:02:02;;;;;;;6.57;4.20;;;12.50;99.90;;;;;;5082054;28;20048;-58
2023/09/02 02:04:35;;;;;;;7.53;4.38;;;12.50;99.90;;;;;;5115798;27;20079;-58
2023/09/02 02:07:08;;;;;;;5.15;4.60;;;12.50;99.90;;;;;;5106272;27;20055;-57
2023/09/02 02:09:47;;;;;;;6.60;4.13;;;12.50;99.90;;;;;;5100497;28;20060;-58
2023/09/02 02:12:14;;;;;;;5.32;4.20;;;12.60;99.90;;;;;;5130064;27;20062;-57
2023/09/02 02:14:40;;;;;;;5.22;4.15;;;12.50;99.90;;;;;;5103989;27;20471;-57
2023/09/02 02:17:06;;;;;;;4.05;3.55;;;12.50;99.90;;;;;;5093263;28;20134;-57
2023/09/02 02:19:32;;;;;;;5.05;3.67;;;12.40;99.90;;;;;;5123575;27;20124;-57
2023/09/02 02:21:58;;;;;;;4.72;3.28;;;12.40;99.90;;;;;;5113565;27;20059;-57
2023/09/02 02:24:25;;;;;;;5.15;3.83;;;12.40;99.90;;;;;;5106406;27;20093;-56
2023/09/02 02:26:51;;;;;;;5.75;3.90;;;12.40;99.90;;;;;;5131474;27;20144;-56
2023/09/02 02:29:16;;;;;;;5.05;3.78;;;12.40;99.90;;;;;;5128743;27;20141;-56
2023/09/02 02:31:42;;;;;;;5.13;4.15;;;12.40;99.90;;;;;;5122924;27;20467;-56
2023/09/02 02:34:07;;;;;;;8.70;4.88;;;12.30;99.90;;;;;;5110501;28;20112;-56
2023/09/02 02:36:33;;;;;;;9.07;4.72;;;12.40;99.90;;;;;;5128563;27;20412;-56
2023/09/02 02:38:59;;;;;;;6.93;5.20;;;12.30;99.90;;;;;;5134071;27;20058;-55
2023/09/02 02:41:25;;;;;;;8.07;5.05;;;12.30;99.90;;;;;;5140814;27;20050;-56
2023/09/02 02:43:50;;;;;;;5.05;4.43;;;12.30;99.90;;;;;;5129156;27;20062;-57
2023/09/02 02:46:16;;;;;;;7.80;4.30;;;12.30;99.90;;;;;;5114946;27;20144;-58
2023/09/02 02:48:42;;;;;;;5.97;4.65;;;12.20;99.90;;;;;;5133468;27;20055;-56
2023/09/02 02:51:07;;;;;;;4.47;3.97;;;12.20;99.90;;;;;;5145043;27;20515;-56
2023/09/02 02:53:34;;;;;;;4.72;4.07;;;12.20;99.90;;;;;;5146227;27;20484;-56
2023/09/02 02:56:02;;;;;;;4.90;4.40;;;12.20;99.90;;;;;;5135364;27;20532;-56
2023/09/02 02:58:29;;;;;;;6.90;4.65;;;12.30;99.90;;;;;;5143399;27;20039;-55
2023/09/02 03:01:05;;;;;;;5.70;4.82;;;12.30;99.90;;;;;;5125998;27;20527;-56
2023/09/02 03:03:32;;;;;;;6.43;3.95;;;12.20;99.90;;;;;;5125855;27;20388;-56
2023/09/02 03:06:01;;;;;;;4.75;3.88;;;12.20;99.90;;;;;;5123163;27;20057;-56
2023/09/02 03:08:27;;;;;;;6.88;4.03;;;12.10;99.90;;;;;;5124575;27;20196;-55
2023/09/02 03:10:57;;;;;;;7.13;4.10;;;12.10;99.90;;;;;;5094300;28;20142;-56
2023/09/02 03:13:27;;;;;;;5.43;3.35;;;12.10;99.90;;;;;;5104943;28;20142;-54
2023/09/02 03:15:56;;;;;;;6.30;3.72;;;12.00;99.90;;;;;;5128122;27;20058;-57
2023/09/02 03:18:24;;;;;;;5.28;4.43;;;12.00;99.90;;;;;;5115776;27;20204;-57
2023/09/02 03:20:49;;;;;;;6.85;4.18;;;12.10;99.90;;;;;;5127172;27;20062;-57
2023/09/02 03:23:15;;;;;;;4.72;3.92;;;12.00;99.90;;;;;;5126000;27;20051;-57
2023/09/02 03:25:41;;;;;;;5.93;5.30;;;12.00;99.90;;;;;;5107245;27;20059;-58
2023/09/02 03:28:07;;;;;;;6.43;4.78;;;12.00;99.90;;;;;;5109658;27;20056;-57
2023/09/02 03:30:33;;;;;;;6.53;5.38;;;12.10;99.90;;;;;;5100354;27;20116;-57
2023/09/02 03:32:59;;;;;;;6.47;5.10;;;12.10;99.90;;;;;;5092007;28;20421;-57
2023/09/02 03:35:25;;;;;;;7.60;5.07;;;12.10;99.90;;;;;;5112215;27;20067;-56
2023/09/02 03:37:51;;;;;;;7.00;5.30;;;12.20;99.90;;;;;;5111848;27;20450;-56
2023/09/02 03:40:17;;;;;;;8.30;5.57;;;12.20;99.90;;;;;;5116920;27;20056;-56
2023/09/02 03:42:43;;;;;;;7.82;6.13;;;12.20;99.90;;;;;;5121806;27;21621;-59
2023/09/02 03:45:09;;;;;;;7.70;6.88;;;12.30;99.90;;;;;;5127314;27;20518;-60
2023/09/02 03:47:36;;;;;;;7.07;4.70;;;12.30;99.90;;;;;;5116032;27;20068;-62
2023/09/02 03:50:05;;;;;;;7.50;5.43;;;12.30;99.90;;;;;;5132130;27;20059;-57
2023/09/02 03:52:31;;;;;;;6.32;5.57;;;12.40;99.90;;;;;;5150352;27;20556;-61
2023/09/02 03:54:58;;;;;;;8.63;6.07;;;12.40;99.90;;;;;;5138377;27;20059;-57
2023/09/02 03:57:24;;;;;;;6.35;5.03;;;12.40;99.90;;;;;;5110823;27;20092;-55
2023/09/02 03:59:50;;;;;;;7.22;5.68;;;12.50;99.90;;;;;;5116117;27;20062;-56
2023/09/02 04:02:15;;;;;;;8.93;6.35;;;12.40;99.90;;;;;;5093273;27;1132977;-56
2023/09/02 04:04:41;;;;;;;8.25;6.35;;;12.50;99.90;;;;;;5121071;27;20085;-57
2023/09/02 04:07:07;;;;;;;6.35;5.57;;;12.50;99.90;;;;;;5117905;27;20234;-56
2023/09/02 04:09:34;;;;;;;7.43;6.18;;;12.60;99.90;;;;;;5106515;27;20078;-56
2023/09/02 04:12:00;;;;;;;9.20;6.60;;;12.60;99.90;;;;;;5121904;27;20051;-56
2023/09/02 04:14:26;;;;;;;8.50;6.07;;;12.60;99.90;;;;;;5126888;27;20062;-56
2023/09/02 04:16:53;;;;;;;8.82;6.25;;;12.60;99.90;;;;;;5113422;27;20059;-57
2023/09/02 04:19:19;;;;;;;9.50;6.55;;;12.60;99.90;;;;;;5131281;27;20058;-56
2023/09/02 04:21:46;;;;;;;17.55;7.93;;;12.70;99.90;;;;;;5137445;27;20051;-57
2023/09/02 04:24:11;;;;;;;8.43;6.57;;;12.70;99.90;;;;;;5138710;27;20054;-57
2023/09/02 04:26:37;;;;;;;9.23;7.25;;;12.70;99.90;;;;;;5134365;27;20420;-57
2023/09/02 04:29:03;;;;;;;8.70;6.88;;;12.70;99.90;;;;;;5105844;28;20189;-57
2023/09/02 04:31:29;;;;;;;8.32;6.78;;;12.70;99.90;;;;;;5123630;27;20058;-56
2023/09/02 04:33:56;;;;;;;8.13;6.93;;;12.70;99.90;;;;;;5114523;27;20051;-56
2023/09/02 04:36:23;;;;;;;9.85;6.65;;;12.80;99.90;;;;;;5138195;27;20058;-57
2023/09/02 04:38:51;;;;;;;9.27;7.00;;;12.80;99.90;;;;;;5116114;27;20048;-57
2023/09/02 04:41:17;;;;;;;7.40;6.43;;;12.70;99.90;;;;;;5118314;27;20135;-57
2023/09/02 04:43:43;;;;;;;11.30;7.70;;;12.80;99.90;;;;;;5115391;27;20058;-56
2023/09/02 04:46:09;;;;;;;11.35;7.35;;;12.80;99.90;;;;;;5123429;27;20052;-57
2023/09/02 04:48:34;;;;;;;11.00;7.22;;;12.90;99.90;;;;;;5081733;27;20097;-56
2023/09/02 04:51:03;;;;;;;12.10;9.45;;;12.80;99.90;;;;;;5095926;28;20142;-57
2023/09/02 04:53:29;;;;;;;8.20;6.82;;;12.90;99.90;;;;;;5103693;28;20059;-57
2023/09/02 04:55:55;;;;;;;11.25;7.75;;;12.90;99.90;;;;;;5118647;27;20043;-57
2023/09/02 04:58:24;;;;;;;9.02;7.80;;;13.00;99.90;;;;;;5120094;27;20184;-57
2023/09/02 05:00:52;;;;;;;11.88;7.93;;;13.00;99.90;;;;;;5097242;27;20515;-57
2023/09/02 05:03:18;;;;;;;11.38;8.23;;;13.10;99.90;;;;;;5096187;28;20466;-58
2023/09/02 05:05:43;;;;;;;9.88;7.95;;;13.10;99.90;;;;;;5119818;27;20146;-58
2023/09/02 05:08:09;;;;;;;10.13;7.75;;;13.10;99.90;;;;;;5111845;27;20059;-57
2023/09/02 05:10:35;;;;;;;12.38;8.32;;;13.20;99.90;;;;;;5130687;27;20092;-57
2023/09/02 05:13:01;;;;;;;12.02;8.00;;;13.20;99.90;;;;;;5150476;27;20496;-57
2023/09/02 05:15:26;;;;;;;12.73;8.18;;;13.20;99.90;;;;;;5110393;27;20051;-57
2023/09/02 05:17:52;;;;;;;9.27;7.28;;;13.20;99.90;;;;;;5126920;27;20772;-58
2023/09/02 05:20:18;;;;;;;12.10;7.75;;;13.20;99.90;;;;;;5126391;27;20048;-57
2023/09/02 05:22:44;;;;;;;10.93;7.72;;;13.20;99.90;;;;;;5136696;27;21226;-59
2023/09/02 05:25:10;;;;;;;11.25;8.68;;;13.30;99.90;;;;;;5136286;27;20081;-58
2023/09/02 05:27:38;;;;;;;10.63;8.30;;;13.30;99.90;;;;;;5122482;27;20046;-58
2023/09/02 05:30:05;;;;;;;10.93;8.48;;;13.30;99.90;;;;;;5119979;27;20051;-58
2023/09/02 05:32:31;;;;;;;11.43;8.13;;;13.30;99.90;;;;;;5113284;27;20055;-57
2023/09/02 05:34:57;;;;;;;12.95;8.95;;;13.30;99.90;;;;;;5118348;27;20055;-58
2023/09/02 05:37:23;;;;;;;14.15;9.50;;;13.30;99.90;;;;;;5106085;27;20099;-58
2023/09/02 05:39:49;;;;;;;14.40;7.80;;;13.30;99.90;;;;;;5129889;27;20051;-58
2023/09/02 05:42:14;;;;;;;11.68;8.50;;;13.30;99.90;;;;;;5136542;27;20046;-56
2023/09/02 05:44:41;;;;;;;10.13;8.52;;;13.40;99.90;;;;;;5124237;27;20063;-57
2023/09/02 05:47:07;;;;;;;10.05;8.02;;;13.40;99.90;;;;;;5112453;27;20058;-58
2023/09/02 05:49:36;;;;;;;10.77;8.38;;;13.40;99.90;;;;;;5119521;27;20110;-58
2023/09/02 05:52:05;;;;;;;10.77;8.57;;;13.40;99.90;;;;;;5106276;27;20144;-58
2023/09/02 05:54:30;;;;;;;11.27;8.30;;;13.40;99.90;;;;;;5132849;27;20050;-57
2023/09/02 05:56:56;;;;;;;10.82;7.72;;;13.50;99.90;;;;;;5136686;27;20055;-58
2023/09/02 05:59:23;;;;;;;11.02;8.63;;;13.70;99.90;;;;;;5134830;27;20393;-57
2023/09/02 06:01:49;;;;;;;11.50;8.60;;;13.70;99.90;;;;;;5136823;27;20058;-58
2023/09/02 06:04:15;;;;;;;13.38;9.38;;;13.80;99.90;;;;;;5124336;27;20067;-57
2023/09/02 06:06:42;;;;;;;15.20;9.55;;;13.90;99.90;;;;;;5139583;27;20063;-57
2023/09/02 06:09:09;;;;;;;15.30;9.68;;;13.90;99.90;;;;;;5126054;27;20051;-57
2023/09/02 06:11:34;;;;;;;11.73;9.02;;;14.10;99.90;;;;;;5113154;27;20048;-57
2023/09/02 06:14:00;;;;;;;10.50;8.73;;;14.20;99.90;;;;;;5116545;27;20557;-57
2023/09/02 06:16:25;;;;;;;13.82;9.65;;;14.30;99.90;;;;;;5132938;27;20138;-57
2023/09/02 06:18:51;;;;;;;13.30;9.43;;;14.40;99.90;;;;;;5101007;28;20504;-57
2023/09/02 06:21:17;;;;;;;16.58;9.45;;;14.50;99.90;;;;;;5101823;28;20083;-57
2023/09/02 06:23:44;;;;;;;14.32;10.82;;;14.70;99.90;;;;;;5108060;27;20059;-57
2023/09/02 06:26:11;;;;;;;13.50;9.90;;;14.80;99.90;;;;;;5095770;28;20454;-57
2023/09/02 06:28:37;;;;;;;17.20;10.43;;;15.10;99.90;;;;;;5130464;27;20106;-57
2023/09/02 06:31:07;;;;;;;15.93;10.57;;;15.20;99.90;;;;;;5114994;27;20104;-57
2023/09/02 06:33:33;;;;;;;16.15;12.45;;;15.40;99.90;;;;;;5117367;27;20059;-58
2023/09/02 06:35:59;;;;;;;15.93;11.50;;;15.60;99.90;;;;;;5104259;28;20051;-57
2023/09/02 06:38:25;;;;;;;15.55;10.98;;;15.80;99.90;;;;;;5083263;28;20056;-57
2023/09/02 06:40:51;;;;;;;15.60;11.82;;;15.90;99.90;;;;;;5111192;27;20114;-57
2023/09/02 06:43:16;;;;;;;17.58;11.90;;;16.10;99.90;;;;;;5097228;27;20114;-57
2023/09/02 06:45:42;;;;;;;15.75;12.25;;;16.30;99.90;;;;;;5102220;27;20059;-59
2023/09/02 06:48:08;;;;;;;16.67;12.45;;;16.40;99.90;;;;;;5114007;27;20047;-58
2023/09/02 06:50:34;;;;;;;15.82;11.80;;;16.60;99.90;;;;;;5149708;27;20416;-57
2023/09/02 06:52:59;;;;;;;16.45;12.30;;;16.90;99.90;;;;;;5145053;27;20042;-56
2023/09/02 06:55:25;;;;;;;18.75;13.13;;;17.00;99.90;;;;;;5096007;28;20047;-56
2023/09/02 06:57:51;;;;;;;16.10;13.65;;;17.10;99.90;;;;;;5104816;28;20052;-57
2023/09/02 07:00:16;;;;;;;16.80;11.65;;;17.30;99.90;;;;;;5144002;27;20050;-56
2023/09/02 07:02:42;;;;;;;18.25;12.75;;;17.60;99.90;;;;;;5117421;27;20796;-56
2023/09/02 07:05:08;;;;;;;16.02;11.95;;;17.70;99.90;;;;;;5103389;28;20047;-62
2023/09/02 07:07:36;;;;;;;22.63;14.13;;;17.80;99.90;;;;;;5136432;27;20052;-63
2023/09/02 07:10:03;;;;;;;17.45;12.48;;;18.00;99.90;;;;;;5126104;27;20055;-58
2023/09/02 07:12:29;;;;;;;14.85;10.77;;;18.20;99.90;;;;;;5093898;27;20059;-61
2023/09/02 07:14:54;;;;;;;17.13;12.40;;;18.40;99.90;;;;;;5127357;27;20069;-57
2023/09/02 07:17:26;;;;;;;17.55;13.15;;;18.50;99.90;;;;;;5126560;27;20139;-58
2023/09/02 07:19:51;;;;;;;16.25;11.23;;;18.60;99.90;;;;;;5112326;27;20552;-59
2023/09/02 07:22:17;;;;;;;17.27;11.38;;;18.80;99.90;;;;;;5104727;28;20051;-58
2023/09/02 07:24:44;;;;;;;15.68;12.25;;;18.90;99.90;;;;;;5136310;27;20061;-57
2023/09/02 07:27:10;;;;;;;16.20;11.80;;;19.00;99.90;;;;;;5137497;27;20051;-57
2023/09/02 07:29:36;;;;;;;17.55;11.57;;;19.10;99.90;;;;;;5130770;27;20055;-64
2023/09/02 07:32:02;;;;;;;15.15;12.15;;;19.30;99.90;;;;;;5128915;27;20055;-64
2023/09/02 07:34:28;;;;;;;16.88;13.23;;;19.40;99.90;;;;;;5129619;27;20058;-61
2023/09/02 07:36:53;;;;;;;20.83;12.20;;;19.50;99.90;;;;;;5146474;27;20042;-61
2023/09/02 07:39:23;;;;;;;17.85;13.32;;;19.60;99.90;;;;;;5129843;27;20134;-58
2023/09/02 07:41:50;;;;;;;17.15;13.63;;;19.70;99.90;;;;;;5117685;27;20051;-57
2023/09/02 07:44:15;;;;;;;17.77;12.40;;;19.80;99.90;;;;;;5114096;27;20499;-57
2023/09/02 07:46:41;;;;;;;17.75;13.00;;;19.90;99.90;;;;;;5122391;27;20146;-56
2023/09/02 07:49:07;;;;;;;14.30;12.27;;;20.10;99.90;;;;;;5120557;27;20054;-57
2023/09/02 07:51:32;;;;;;;14.75;12.25;;;20.20;99.90;;;;;;5139370;27;20122;-56
2023/09/02 07:53:58;;;;;;;14.60;11.57;;;20.20;99.90;;;;;;5130055;27;20412;-57
2023/09/02 07:56:24;;;;;;;15.18;12.93;;;20.40;99.90;;;;;;5117695;27;20065;-56
2023/09/02 07:58:51;;;;;;;15.88;12.20;;;20.60;99.90;;;;;;5128893;27;20075;-56
2023/09/02 08:01:17;;;;;;;19.45;13.82;;;20.70;99.90;;;;;;5119313;27;20542;-57
2023/09/02 08:03:42;;;;;;;14.60;12.15;;;20.90;99.90;;;;;;5126518;27;21343;-57
2023/09/02 08:06:08;;;;;;;17.75;12.50;;;21.30;99.90;;;;;;5127144;27;20111;-57
2023/09/02 08:08:35;;;;;;;14.45;11.15;;;21.20;99.90;;;;;;5118796;27;20412;-57
2023/09/02 08:11:05;;;;;;;18.25;11.45;;;21.30;99.90;;;;;;5099843;27;20412;-57
2023/09/02 08:13:31;;;;;;;15.13;11.65;;;21.60;99.90;;;;;;5124950;27;20147;-56
2023/09/02 08:15:58;;;;;;;12.68;10.10;;;21.60;99.90;;;;;;5116885;27;20192;-57
2023/09/02 08:18:24;;;;;;;19.10;11.63;;;22.20;99.90;;;;;;5118181;27;20111;-56
2023/09/02 08:20:49;;;;;;;12.38;10.05;;;22.40;99.90;;;;;;5082483;27;1167242;-57
2023/09/02 08:23:15;;;;;;;12.27;10.93;;;22.60;99.90;;;;;;5125593;27;20055;-57
2023/09/02 08:25:41;;;;;;;14.90;11.45;;;22.60;99.90;;;;;;5103444;27;20063;-57
2023/09/02 08:28:07;;;;;;;12.65;9.57;;;23.00;99.90;;;;;;5131003;27;20062;-58
2023/09/02 08:30:32;;;;;;;13.15;9.65;;;23.40;99.90;;;;;;5133708;27;20068;-57
2023/09/02 08:32:58;;;;;;;11.70;9.35;;;23.30;99.90;;;;;;5097771;27;20055;-65
2023/09/02 08:35:24;;;;;;;10.93;9.20;;;23.60;99.90;;;;;;5114730;27;20055;-64
2023/09/02 08:37:51;;;;;;;15.05;9.77;;;23.60;99.90;;;;;;5115694;27;20062;-58
2023/09/02 08:40:17;;;;;;;10.55;8.50;;;23.80;99.90;;;;;;5114198;27;20120;-58
2023/09/02 08:42:44;;;;;;;13.63;9.70;;;24.30;99.90;;;;;;5112534;27;20051;-58
2023/09/02 08:45:11;;;;;;;10.13;8.65;;;24.50;99.90;;;;;;5120079;27;20055;-58
2023/09/02 08:47:40;;;;;;;14.05;8.88;;;24.70;99.90;;;;;;5118044;27;20054;-58
2023/09/02 08:50:10;;;;;;;12.50;8.32;;;24.80;99.90;;;;;;5104916;27;20103;-57
2023/09/02 08:52:40;;;;;;;11.02;8.13;;;24.90;99.90;;;;;;5081872;27;20043;-56
2023/09/02 08:55:07;;;;;;;12.25;7.65;;;25.20;99.90;;;;;;5118295;27;20633;-58
2023/09/02 08:57:34;;;;;;;10.98;7.97;;;25.20;99.90;;;;;;5096495;27;20051;-58
2023/09/02 09:00:00;;;;;;;9.15;7.65;;;25.30;99.90;;;;;;5110030;27;20059;-57
2023/09/02 09:02:27;;;;;;;11.32;8.07;;;25.30;99.90;;;;;;5108577;27;20541;-58
2023/09/02 09:04:54;;;;;;;13.35;8.40;;;25.60;99.90;;;;;;5107497;27;20081;-58
2023/09/02 09:07:26;;;;;;;11.13;8.13;;;25.70;99.90;;;;;;5104615;27;20076;-57
2023/09/02 09:09:53;;;;;;;10.25;8.15;;;25.80;99.90;;;;;;5095894;27;20056;-58
2023/09/02 09:14:47;;;;;;;11.02;8.15;;;26.10;99.90;;;;;;5100891;27;20066;-58
2023/09/02 09:17:14;;;;;;;12.65;8.60;;;25.90;99.90;;;;;;5121365;27;20439;-58
2023/09/02 09:19:40;;;;;;;9.43;7.75;;;26.10;99.90;;;;;;5126189;27;20070;-58
2023/09/02 09:22:06;;;;;;;11.00;7.55;;;26.60;99.90;;;;;;5100743;27;20134;-60
2023/09/02 09:24:32;;;;;;;14.13;7.90;;;26.90;99.90;;;;;;5111049;27;20141;-59
2023/09/02 09:27:01;;;;;;;11.43;7.13;;;26.60;99.90;;;;;;5099161;27;20697;-58
2023/09/02 09:29:42;;;;;;;8.15;6.22;;;27.00;99.90;;;;;;5114398;27;20055;-63
2023/09/02 09:32:14;;;;;;;8.75;6.40;;;27.50;99.90;;;;;;5108650;27;20058;-59
2023/09/02 09:34:44;;;;;;;8.65;7.18;;;27.50;99.90;;;;;;5117301;27;20067;-58
2023/09/02 09:37:10;;;;;;;10.98;7.30;;;27.10;99.90;;;;;;5093152;27;20053;-58
2023/09/02 09:39:43;;;;;;;10.48;6.72;;;28.00;99.90;;;;;;5111557;27;20055;-58
2023/09/02 09:42:13;;;;;;;7.50;6.32;;;27.90;99.90;;;;;;5129629;27;20051;-60
2023/09/02 09:44:56;;;;;;;7.80;7.05;;;28.20;99.90;;;;;;5107874;27;20050;-58
2023/09/02 09:47:26;;;;;;;12.23;7.97;;;28.70;99.90;;;;;;5096544;28;20108;-58
2023/09/02 09:49:52;;;;;;;7.45;6.65;;;28.50;99.90;;;;;;5095575;28;20181;-58
2023/09/02 09:52:23;;;;;;;9.77;6.55;;;28.80;99.90;;;;;;5104077;27;20070;-61
2023/09/02 09:54:52;;;;;;;7.70;5.60;;;28.40;99.90;;;;;;5116398;27;20065;-69
2023/09/02 09:57:23;;;;;;;8.77;5.68;;;28.50;99.90;;;;;;5103954;27;20047;-60
2023/09/02 09:59:51;;;;;;;7.65;5.45;;;28.80;99.90;;;;;;5108426;27;20086;-61
2023/09/02 10:02:18;;;;;;;7.10;5.60;;;29.20;99.90;;;;;;5104123;27;20523;-62
2023/09/02 10:04:56;;;;;;;9.32;6.55;;;29.40;99.90;;;;;;5120054;27;20059;-62
2023/09/02 10:07:25;;;;;;;7.60;5.47;;;28.60;99.90;;;;;;5110739;27;20066;-62
2023/09/02 10:09:54;;;;;;;8.80;5.88;;;28.10;99.90;;;;;;5105970;27;20117;-64
2023/09/02 10:12:24;;;;;;;8.73;5.47;;;28.00;99.90;;;;;;5106857;27;20055;-62
2023/09/02 10:14:50;;;;;;;9.05;5.65;;;27.80;99.90;;;;;;5102604;27;20054;-64
2023/09/02 10:17:17;;;;;;;9.15;5.53;;;27.20;99.90;;;;;;5120163;27;20054;-63
2023/09/02 10:19:45;;;;;;;7.22;5.32;;;26.80;99.90;;;;;;5124541;27;20186;-59
2023/09/02 10:24:51;;;;;;;;;;;26.20;99.90;;;;;;5099886;27;20136;-62
2023/09/02 10:27:23;;;;;;;7.68;4.93;;;25.90;99.90;;;;;;5082905;28;19920;-58
2023/09/02 10:30:00;;;;;;;5.63;4.55;;;25.80;99.90;;;;;;5105323;27;20485;-59
2023/09/02 10:32:37;;;;;;;7.65;4.28;;;25.60;99.90;;;;;;5115075;27;20047;-59
2023/09/02 10:35:17;;;;;;;8.10;5.07;;;25.60;99.90;;;;;;5114280;27;20079;-58
2023/09/02 10:37:51;;;;;;;6.45;4.70;;;26.20;99.90;;;;;;5106625;27;20054;-58
2023/09/02 10:42:49;;;;;;;7.47;5.25;;;26.30;99.90;;;;;;5100991;27;20757;-59
2023/09/02 10:45:18;;;;;;;10.90;4.70;;;27.10;99.90;;;;;;5112974;27;20501;-59
2023/09/02 10:47:49;;;;;;;6.40;4.28;;;27.30;99.90;;;;;;5109703;27;20055;-58
2023/09/02 10:52:53;;;;;;;7.72;5.00;;;28.20;99.90;;;;;;5113574;27;20050;-57
2023/09/02 10:57:55;;;;;;;8.90;5.15;;;28.40;99.90;;;;;;5109680;28;20607;-58
2023/09/02 11:00:29;;;;;;;5.97;4.53;;;28.30;99.90;;;;;;5118053;27;20508;-58
2023/09/02 11:02:59;;;;;;;6.38;3.83;;;28.10;99.90;;;;;;5098537;27;20092;-58
2023/09/02 11:05:27;;;;;;;5.85;3.55;;;27.60;99.90;;;;;;5127587;27;20066;-58
2023/09/02 11:07:53;;;;;;;6.10;3.90;;;27.30;99.90;;;;;;5118663;27;20050;-60
2023/09/02 11:13:00;;;;;;;6.18;3.28;;;27.50;99.90;;;;;;5103794;27;20063;-59
2023/09/02 11:15:27;;;;;;;5.50;3.35;;;27.20;99.90;;;;;;5126143;27;20087;-58
2023/09/02 11:17:53;;;;;;;5.18;3.33;;;27.40;99.90;;;;;;5107097;27;20051;-58
2023/09/02 11:22:56;;;;;;;6.43;3.88;;;27.10;99.90;;;;;;5113441;27;20062;-58
2023/09/02 11:25:25;;;;;;;6.72;4.72;;;28.70;99.90;;;;;;5108170;27;20058;-59
2023/09/02 11:27:50;;;;;;;6.53;4.38;;;31.10;99.90;;;;;;5098724;27;20403;-58
2023/09/02 11:30:17;;;;;;;4.35;3.95;;;31.20;99.90;;;;;;5117907;27;20048;-59
2023/09/02 11:32:44;;;;;;;7.05;4.30;;;30.30;99.90;;;;;;5122554;27;21124;-58
2023/09/02 11:35:11;;;;;;;5.43;3.50;;;28.60;99.90;;;;;;5122053;27;20062;-58
2023/09/02 11:37:37;;;;;;;5.57;3.55;;;28.40;99.90;;;;;;5111508;27;20055;-58
2023/09/02 11:40:17;;;;;;;8.15;3.50;;;27.70;99.90;;;;;;5120555;27;20099;-59
2023/09/02 11:42:54;;;;;;;7.70;3.85;;;29.10;99.90;;;;;;5111793;27;20086;-59
2023/09/02 11:45:24;;;;;;;6.30;3.17;;;31.60;99.20;;;;;;5117097;27;20534;-59
2023/09/02 11:47:51;;;;;;;5.68;3.72;;;34.00;97.90;;;;;;5106645;27;21275;-59
2023/09/02 11:50:19;;;;;;;5.25;3.60;;;34.30;96.10;;;;;;5119320;27;20079;-58
2023/09/02 11:52:46;;;;;;;6.50;4.10;;;35.20;95.60;;;;;;5120598;27;20181;-59
2023/09/02 11:55:14;;;;;;;3.70;3.40;;;35.60;95.00;;;;;;5113246;27;20056;-58
2023/09/02 11:57:40;;;;;;;5.55;3.63;;;36.20;95.20;;;;;;5123094;27;20051;-59
2023/09/02 12:00:07;;;;;;;4.95;3.20;;;33.40;95.70;;;;;;5113758;27;20063;-59
2023/09/02 12:02:37;;;;;;;5.20;3.58;;;31.70;96.30;;;;;;5118872;27;20047;-59
2023/09/02 12:05:07;;;;;;;4.00;2.78;;;29.90;98.00;;;;;;5101679;27;20403;-59
2023/09/02 12:07:35;;;;;;;4.93;3.38;;;28.80;99.00;;;;;;5092361;27;20605;-63
2023/09/02 12:10:08;;;;;;;5.55;3.45;;;27.80;99.90;;;;;;5116547;27;20073;-60
2023/09/02 12:12:39;;;;;;;4.20;3.33;;;31.30;97.80;;;;;;5112705;27;20039;-63
2023/09/02 12:15:05;;;;;;;5.43;3.50;;;31.40;96.30;;;;;;5120739;27;20100;-58
2023/09/02 12:17:31;;;;;;;2.38;2.17;;;31.60;96.10;;;;;;5125297;27;20063;-58
2023/09/02 12:19:58;;;;;;;5.18;3.05;;;33.00;96.90;;;;;;5133057;27;20058;-58
2023/09/02 12:22:28;;;;;;;5.25;3.13;;;31.80;97.00;;;;;;5112431;27;20047;-58
2023/09/02 12:24:53;;;;;;;3.55;3.00;;;31.70;97.50;;;;;;5098434;27;21106;-59
2023/09/02 12:27:19;;;;;;;4.38;2.65;;;29.60;97.60;;;;;;5105305;27;20511;-58
2023/09/02 12:29:56;;;;;;;7.50;2.97;;;29.90;98.70;;;;;;5122668;27;20143;-58
2023/09/02 12:32:24;;;;;;;2.80;2.28;;;29.70;96.90;;;;;;5111771;27;20513;-59
2023/09/02 12:34:50;;;;;;;4.63;3.10;;;29.30;98.40;;;;;;5117138;27;20063;-58
2023/09/02 12:40:11;;;;;;;3.38;2.97;;;29.20;97.30;;;;;;5096888;27;20839;-58
2023/09/02 12:42:37;;;;;;;5.45;2.65;;;27.40;99.90;;;;;;5111494;27;20043;-58
2023/09/02 12:45:07;;;;;;;3.95;2.33;;;26.80;99.90;;;;;;5119070;27;20078;-58
2023/09/02 12:47:34;;;;;;;4.13;2.35;;;25.70;99.90;;;;;;5116211;27;20055;-58
2023/09/02 12:50:02;;;;;;;3.75;2.20;;;25.20;99.90;;;;;;5116346;27;20205;-58
2023/09/02 12:52:29;;;;;;;5.30;2.33;;;25.40;99.90;;;;;;5111361;27;20066;-58
2023/09/02 12:55:00;;;;;;;2.97;1.95;;;25.90;99.90;;;;;;5122619;27;21915;-58
2023/09/02 12:57:34;;;;;;;6.85;3.25;;;26.50;99.90;;;;;;5105465;27;20059;-57
2023/09/02 13:00:03;;;;;;;3.78;3.10;;;26.50;99.90;;;;;;5096196;28;20471;-58
2023/09/02 13:02:29;;;;;;;4.55;2.15;;;26.60;99.90;;;;;;5097034;27;20060;-58